createdAt,value
2024-05-09T00:02:14.714Z,95877
2024-05-09T00:05:39.990Z,95886
2024-05-09T00:09:05.168Z,95878
2024-05-09T00:12:30.437Z,95880
2024-05-09T00:15:55.590Z,95879
2024-05-09T00:19:20.979Z,95881
2024-05-09T00:22:46.062Z,95877
2024-05-09T00:26:11.264Z,95880
2024-05-09T00:29:36.482Z,95884
2024-05-09T00:33:01.839Z,95886
2024-05-09T00:36:26.951Z,95884
2024-05-09T00:39:52.183Z,95881
2024-05-09T00:43:17.456Z,95883
2024-05-09T00:46:42.681Z,95879
2024-05-09T00:50:12.591Z,95883
2024-05-09T00:53:33.200Z,95880
2024-05-09T00:56:58.328Z,95880
2024-05-09T01:00:27.060Z,95881
2024-05-09T01:03:50.991Z,95877
2024-05-09T01:07:13.993Z,95880
2024-05-09T01:10:40.289Z,95877
2024-05-09T01:14:04.458Z,95885
2024-05-09T01:17:29.870Z,95880
2024-05-09T01:20:54.883Z,95883
2024-05-09T01:24:20.086Z,95885
2024-05-09T01:27:45.293Z,95881
2024-05-09T01:31:10.524Z,95883
2024-05-09T01:34:35.792Z,95881
2024-05-09T01:38:01.074Z,95880
2024-05-09T01:41:26.369Z,95886
2024-05-09T01:44:51.555Z,95885
2024-05-09T01:48:16.832Z,95877
2024-05-09T01:51:42.088Z,95873
2024-05-09T01:55:07.270Z,95879
2024-05-09T01:58:32.491Z,95877
2024-05-09T02:01:58.015Z,95876
2024-05-09T02:05:23.186Z,95871
2024-05-09T02:08:48.167Z,95876
2024-05-09T02:12:13.411Z,95873
2024-05-09T02:15:38.563Z,95873
2024-05-09T02:19:03.876Z,95877
2024-05-09T02:22:29.047Z,95878
2024-05-09T02:25:54.332Z,95878
2024-05-09T02:29:19.524Z,95880
2024-05-09T02:32:44.875Z,95885
2024-05-09T02:36:09.948Z,95882
2024-05-09T02:39:35.164Z,95879
2024-05-09T02:43:00.386Z,95881
2024-05-09T02:46:25.589Z,95871
2024-05-09T02:49:50.836Z,95872
2024-05-09T02:53:16.081Z,95878
2024-05-09T02:56:41.293Z,95872
2024-05-09T03:00:12.089Z,95868
2024-05-09T03:03:32.063Z,95867
2024-05-09T03:06:56.948Z,95864
2024-05-09T03:10:25.134Z,95864
2024-05-09T03:13:47.382Z,95860
2024-05-09T03:17:12.634Z,95859
2024-05-09T03:20:38.028Z,95861
2024-05-09T03:24:03.041Z,95860
2024-05-09T03:27:28.264Z,95870
2024-05-09T03:30:53.495Z,95871
2024-05-09T03:34:18.802Z,95874
2024-05-09T03:37:44.043Z,95869
2024-05-09T03:41:09.252Z,95869
2024-05-09T03:44:34.486Z,95873
2024-05-09T03:47:59.781Z,95873
2024-05-09T03:51:24.891Z,95870
2024-05-09T03:54:50.109Z,95868
2024-05-09T03:58:15.327Z,95865
2024-05-09T04:01:40.663Z,95864
2024-05-09T04:05:05.744Z,95869
2024-05-09T04:08:31.018Z,95866
2024-05-09T04:11:56.278Z,95864
2024-05-09T04:15:21.435Z,95863
2024-05-09T04:18:46.742Z,95865
2024-05-09T04:22:11.856Z,95869
2024-05-09T04:25:37.334Z,95869
2024-05-09T04:29:02.314Z,95879
2024-05-09T04:32:27.689Z,95880
2024-05-09T04:35:52.738Z,95871
2024-05-09T04:39:17.963Z,95880
2024-05-09T04:42:43.202Z,95886
2024-05-09T04:46:08.402Z,95889
2024-05-09T04:49:33.754Z,95886
2024-05-09T04:52:58.907Z,95887
2024-05-09T04:56:24.101Z,95891
2024-05-09T04:59:49.344Z,95889
2024-05-09T05:03:15.435Z,95887
2024-05-09T05:06:39.750Z,95888
2024-05-09T05:10:05.934Z,95887
2024-05-09T05:13:30.232Z,95889
2024-05-09T05:16:55.521Z,95893
2024-05-09T05:20:24.339Z,95895
2024-05-09T05:23:45.868Z,95899
2024-05-09T05:27:11.096Z,95902
2024-05-09T05:30:36.306Z,95893
2024-05-09T05:34:01.537Z,95895
2024-05-09T05:37:26.737Z,95893
2024-05-09T05:40:52.033Z,95890
2024-05-09T05:44:17.358Z,95894
2024-05-09T05:47:42.698Z,95895
2024-05-09T05:51:07.725Z,95896
2024-05-09T05:54:32.917Z,95896
2024-05-09T05:57:58.148Z,95899
2024-05-09T06:01:23.371Z,95900
2024-05-09T06:04:48.796Z,95909
2024-05-09T06:08:14.087Z,95906
2024-05-09T06:11:39.131Z,95903
2024-05-09T06:15:04.345Z,95909
2024-05-09T06:18:29.751Z,95909
2024-05-09T06:21:54.795Z,95909
2024-05-09T06:25:20.007Z,95913
2024-05-09T06:28:45.292Z,95907
2024-05-09T06:32:10.524Z,95903
2024-05-09T06:35:35.941Z,95911
2024-05-09T06:39:00.941Z,95910
2024-05-09T06:42:26.232Z,95914
2024-05-09T06:45:51.490Z,95917
2024-05-09T06:49:16.991Z,95915
2024-05-09T06:52:42.181Z,95919
2024-05-09T06:56:07.602Z,95912
2024-05-09T06:59:32.996Z,95912
2024-05-09T07:02:59.677Z,95916
2024-05-09T07:06:23.484Z,95911
2024-05-09T07:09:48.799Z,95914
2024-05-09T07:13:14.451Z,95914
2024-05-09T07:16:39.496Z,95916
2024-05-09T07:20:06.814Z,95907
2024-05-09T07:23:30.295Z,95908
2024-05-09T07:26:55.509Z,95911
2024-05-09T07:30:23.703Z,95910
2024-05-09T07:33:46.154Z,95913
2024-05-09T07:37:11.376Z,95914
2024-05-09T07:40:37.042Z,95911
2024-05-09T07:44:02.036Z,95921
2024-05-09T07:51:47.308Z,95912
2024-05-09T07:54:18.047Z,95909
2024-05-09T07:57:43.241Z,95909
2024-05-09T08:01:08.507Z,95911
2024-05-09T08:04:33.926Z,95907
2024-05-09T08:07:59.130Z,95900
2024-05-09T08:11:24.533Z,95894
2024-05-09T08:14:49.721Z,95895
2024-05-09T08:18:15.246Z,95895
2024-05-09T08:21:40.355Z,95897
2024-05-09T08:25:05.751Z,95897
2024-05-09T08:28:30.987Z,95899
2024-05-09T08:31:56.358Z,95900
2024-05-09T08:35:21.522Z,95894
2024-05-09T08:38:46.806Z,95894
2024-05-09T08:42:12.142Z,95896
2024-05-09T08:45:37.552Z,95896
2024-05-09T08:49:02.998Z,95894
2024-05-09T08:52:28.092Z,95900
2024-05-09T08:55:53.370Z,95897
2024-05-09T08:59:18.988Z,95900
2024-05-09T09:02:44.188Z,95899
2024-05-09T09:06:09.386Z,95897
2024-05-09T09:09:34.735Z,95897
2024-05-09T09:13:00.034Z,95896
2024-05-09T09:16:25.400Z,95898
2024-05-09T09:19:50.680Z,95901
2024-05-09T09:23:15.931Z,95904
2024-05-09T09:26:41.245Z,95902
2024-05-09T09:30:10.932Z,95898
2024-05-09T09:33:32.174Z,95899
2024-05-09T09:36:57.193Z,95899
2024-05-09T09:40:25.606Z,95897
2024-05-09T09:43:47.757Z,95894
2024-05-09T09:47:13.093Z,95894
2024-05-09T09:50:38.399Z,95894
2024-05-09T09:54:03.705Z,95899
2024-05-09T09:57:29.465Z,95897
2024-05-09T10:00:54.954Z,95887
2024-05-09T10:04:20.186Z,95881
2024-05-09T10:07:45.482Z,95878
2024-05-09T10:11:10.842Z,95881
2024-05-09T10:14:36.153Z,95870
2024-05-09T10:18:01.572Z,95873
2024-05-09T10:21:26.809Z,95869
2024-05-09T10:24:52.171Z,95867
2024-05-09T10:28:24.984Z,95874
2024-05-09T10:31:50.239Z,95874
2024-05-09T10:35:15.474Z,95873
2024-05-09T10:38:40.802Z,95876
2024-05-09T10:42:06.170Z,95866
2024-05-09T10:45:31.518Z,95863
2024-05-09T10:48:56.855Z,95862
2024-05-09T10:52:22.177Z,95861
2024-05-09T10:55:47.421Z,95856
2024-05-09T10:59:12.770Z,95854
2024-05-09T11:02:38.071Z,95847
2024-05-09T11:06:03.336Z,95852
2024-05-09T11:09:29.659Z,95846
2024-05-09T11:12:54.945Z,95844
2024-05-09T11:16:20.999Z,95840
2024-05-09T11:19:45.558Z,95831
2024-05-09T11:23:10.865Z,95833
2024-05-09T11:26:36.169Z,95831
2024-05-09T11:30:01.482Z,95835
2024-05-09T11:33:26.801Z,95834
2024-05-09T11:36:52.119Z,95822
2024-05-09T11:40:24.643Z,95818
2024-05-09T11:43:42.698Z,95807
2024-05-09T11:47:08.045Z,95814
2024-05-09T11:50:35.190Z,95816
2024-05-09T11:53:58.620Z,95808
2024-05-09T11:57:23.950Z,95812
2024-05-09T12:00:49.369Z,95812
2024-05-09T12:04:14.832Z,95814
2024-05-09T12:07:39.863Z,95807
2024-05-09T12:11:05.190Z,95801
2024-05-09T12:14:30.421Z,95793
2024-05-09T12:17:57.296Z,95794
2024-05-09T12:21:21.007Z,95793
2024-05-09T12:24:46.348Z,95789
2024-05-09T12:28:14.857Z,95791
2024-05-09T12:31:40.114Z,95792
2024-05-09T12:35:05.443Z,95787
2024-05-09T12:38:30.760Z,95786
2024-05-09T12:41:56.087Z,95781
2024-05-09T12:45:21.390Z,95780
2024-05-09T12:48:46.802Z,95780
2024-05-09T12:52:12.064Z,95779
2024-05-09T12:55:40.807Z,95773
2024-05-09T12:59:02.717Z,95772
2024-05-09T13:02:28.175Z,95765
2024-05-09T13:05:53.382Z,95763
2024-05-09T13:09:18.620Z,95757
2024-05-09T13:12:44.012Z,95751
2024-05-09T13:16:09.317Z,95744
2024-05-09T13:19:34.499Z,95746
2024-05-09T13:22:59.850Z,95745
2024-05-09T13:26:25.126Z,95747
2024-05-09T13:29:50.435Z,95748
2024-05-09T13:33:15.927Z,95746
2024-05-09T13:36:41.044Z,95743
2024-05-09T13:40:07.062Z,95739
2024-05-09T13:43:31.666Z,95736
2024-05-09T13:46:56.949Z,95733
2024-05-09T13:50:27.513Z,95729
2024-05-09T13:53:47.580Z,95728
2024-05-09T13:57:12.873Z,95728
2024-05-09T14:00:42.787Z,95727
2024-05-09T14:04:03.511Z,95723
2024-05-09T14:07:28.776Z,95725
2024-05-09T14:10:54.229Z,95716
2024-05-09T14:14:19.379Z,95714
2024-05-09T14:17:44.657Z,95708
2024-05-09T14:21:09.921Z,95703
2024-05-09T14:24:35.296Z,95696
2024-05-09T14:28:00.684Z,95691
2024-05-09T14:31:25.984Z,95684
2024-05-09T14:34:51.195Z,95682
2024-05-09T14:38:16.472Z,95678
2024-05-09T14:41:41.764Z,95685
2024-05-09T14:45:07.061Z,95678
2024-05-09T14:48:32.475Z,95672
2024-05-09T14:51:57.734Z,95672
2024-05-09T14:55:22.979Z,95674
2024-05-09T14:58:48.256Z,95662
2024-05-09T15:02:13.716Z,95669
2024-05-09T15:05:38.993Z,95665
2024-05-09T15:09:04.280Z,95663
2024-05-09T15:12:29.618Z,95666
2024-05-09T15:15:54.999Z,95659
2024-05-09T15:19:20.549Z,95657
2024-05-09T15:22:45.487Z,95648
2024-05-09T15:26:10.814Z,95644
2024-05-09T15:29:36.113Z,95638
2024-05-09T15:33:01.703Z,95628
2024-05-09T15:36:26.661Z,95637
2024-05-09T15:39:51.984Z,95633
2024-05-09T15:43:17.267Z,95629
2024-05-09T15:46:42.547Z,95631
2024-05-09T15:50:11.940Z,95632
2024-05-09T15:53:33.086Z,95630
2024-05-09T15:56:58.364Z,95623
2024-05-09T16:00:28.389Z,95630
2024-05-09T16:03:49.023Z,95632
2024-05-09T16:07:14.362Z,95633
2024-05-09T16:10:42.223Z,95633
2024-05-09T16:14:05.526Z,95626
2024-05-09T16:17:30.911Z,95625
2024-05-09T16:20:56.134Z,95626
2024-05-09T16:24:21.466Z,95623
2024-05-09T16:27:46.808Z,95625
2024-05-09T16:31:12.051Z,95622
2024-05-09T16:34:37.329Z,95627
2024-05-09T16:38:02.577Z,95626
2024-05-09T16:41:27.887Z,95624
2024-05-09T16:44:53.156Z,95630
2024-05-09T16:48:18.601Z,95628
2024-05-09T16:51:43.944Z,95626
2024-05-09T16:55:09.302Z,95635
2024-05-09T16:58:34.605Z,95630
2024-05-09T17:01:59.999Z,95628
2024-05-09T17:05:25.350Z,95627
2024-05-09T17:08:50.444Z,95631
2024-05-09T17:12:15.785Z,95630
2024-05-09T17:15:41.313Z,95630
2024-05-09T17:19:06.314Z,95627
2024-05-09T17:22:31.573Z,95624
2024-05-09T17:25:56.854Z,95624
2024-05-09T17:29:22.180Z,95625
2024-05-09T17:32:47.516Z,95619
2024-05-09T17:36:12.792Z,95620
2024-05-09T17:39:38.069Z,95621
2024-05-09T17:43:03.880Z,95621
2024-05-09T17:46:28.755Z,95628
2024-05-09T17:49:54.035Z,95618
2024-05-09T17:53:19.388Z,95624
2024-05-09T17:56:44.601Z,95625
2024-05-09T18:00:11.668Z,95622
2024-05-09T18:03:36.788Z,95624
2024-05-09T18:07:07.738Z,95620
2024-05-09T18:10:35.816Z,95616
2024-05-09T18:13:58.355Z,95620
2024-05-09T18:17:25.703Z,95621
2024-05-09T18:20:49.081Z,95626
2024-05-09T18:24:14.334Z,95623
2024-05-09T18:27:39.693Z,95629
2024-05-09T18:31:04.953Z,95632
2024-05-09T18:34:30.432Z,95633
2024-05-09T18:37:55.532Z,95627
2024-05-09T18:41:20.817Z,95629
2024-05-09T18:44:46.142Z,95634
2024-05-09T18:48:11.551Z,95634
2024-05-09T18:51:36.794Z,95637
2024-05-09T18:55:02.182Z,95642
2024-05-09T18:58:27.413Z,95643
2024-05-09T19:01:52.736Z,95648
2024-05-09T19:05:18.023Z,95649
2024-05-09T19:08:43.292Z,95646
2024-05-09T19:12:08.595Z,95648
2024-05-09T19:15:33.942Z,95651
2024-05-09T19:18:59.217Z,95653
2024-05-09T19:22:24.596Z,95658
2024-05-09T19:25:49.764Z,95660
2024-05-09T19:29:15.058Z,95663
2024-05-09T19:32:40.501Z,95667
2024-05-09T19:36:05.648Z,95675
2024-05-09T19:39:31.024Z,95680
2024-05-09T19:42:56.348Z,95677
2024-05-09T19:46:21.677Z,95682
2024-05-09T19:49:47.001Z,95681
2024-05-09T19:53:12.384Z,95686
2024-05-09T19:56:37.575Z,95688
2024-05-09T20:00:03.332Z,95687
2024-05-09T20:03:28.253Z,95684
2024-05-09T20:06:53.514Z,95686
2024-05-09T20:10:23.223Z,95688
2024-05-09T20:13:44.018Z,95689
2024-05-09T20:17:09.302Z,95692
2024-05-09T20:20:36.995Z,95690
2024-05-09T20:23:59.994Z,95686
2024-05-09T20:27:25.323Z,95685
2024-05-09T20:30:50.633Z,95687
2024-05-09T20:34:15.921Z,95690
2024-05-09T20:37:41.162Z,95681
2024-05-09T20:41:06.517Z,95685
2024-05-09T20:44:31.845Z,95680
2024-05-09T20:47:57.305Z,95683
2024-05-09T20:51:22.465Z,95684
2024-05-09T20:54:47.846Z,95687
2024-05-09T20:58:13.607Z,95683
2024-05-09T21:01:39.381Z,95689
2024-05-09T21:05:04.739Z,95693
2024-05-09T21:08:29.944Z,95690
2024-05-09T21:11:55.344Z,95687
2024-05-09T21:15:20.617Z,95690
2024-05-09T21:18:45.916Z,95692
2024-05-09T21:22:11.266Z,95691
2024-05-09T21:25:36.533Z,95687
2024-05-09T21:29:01.808Z,95685
2024-05-09T21:32:27.309Z,95691
2024-05-09T21:35:52.554Z,95686
2024-05-09T21:39:17.888Z,95688
2024-05-09T21:42:43.227Z,95687
2024-05-09T21:46:08.588Z,95685
2024-05-09T21:49:34.179Z,95686
2024-05-09T21:52:59.175Z,95686
2024-05-09T21:56:24.423Z,95686
2024-05-09T21:59:49.795Z,95680
2024-05-09T22:03:15.218Z,95676
2024-05-09T22:06:40.447Z,95680
2024-05-09T22:10:09.900Z,95682
2024-05-09T22:13:31.016Z,95677
2024-05-09T22:16:56.371Z,95680
2024-05-09T22:20:25.153Z,95674
2024-05-09T22:23:47.017Z,95676
2024-05-09T22:27:12.301Z,95677
2024-05-09T22:30:39.154Z,95681
2024-05-09T22:34:03.012Z,95677
2024-05-09T22:37:28.171Z,95679
2024-05-09T22:40:53.516Z,95680
2024-05-09T22:44:18.811Z,95681
2024-05-09T22:47:44.279Z,95679
2024-05-09T22:51:09.553Z,95686
2024-05-09T22:54:34.852Z,95686
2024-05-09T22:58:00.269Z,95680
2024-05-09T23:01:26.846Z,95681
2024-05-09T23:04:50.872Z,95684
2024-05-09T23:08:16.116Z,95681
2024-05-09T23:11:41.599Z,95680
2024-05-09T23:15:06.896Z,95673
2024-05-09T23:18:32.326Z,95673
2024-05-09T23:21:57.559Z,95680
2024-05-09T23:25:22.900Z,95672
2024-05-09T23:28:48.135Z,95676
2024-05-09T23:32:13.482Z,95674
2024-05-09T23:35:38.757Z,95669
2024-05-09T23:39:04.056Z,95666
2024-05-09T23:42:29.359Z,95661
2024-05-09T23:45:54.674Z,95675
2024-05-09T23:49:20.109Z,95669
2024-05-09T23:52:45.394Z,95670
2024-05-09T23:56:10.727Z,95665
2024-05-09T23:59:36.061Z,95662
